Terminal Aerodrome Forecast
Issued by NWS

Home | Current Version | Previous Version | Text Only | Print | Product List | Glossary On
Versions: 1 2 3 4 5 6 7 8 9 10 11 12 13
000
FTUS45 KABQ 221100
TAFFMN
TAF
KFMN 221120Z 2212/2312 08007KT P6SM FEW120
     FM222000 23006KT P6SM FEW120
     FM222300 15009KT P6SM FEW120 SCT200
     FM230400 12009KT P6SM BKN120=

USA.gov is the U.S. government's official web portal to all federal, state and local government web resources and services.